createdAt,value
2018-10-16T00:01:31.436Z,10.43
2018-10-16T00:04:01.059Z,9.07
2018-10-16T00:06:31.753Z,10.87
2018-10-16T00:09:03.422Z,11.67
2018-10-16T00:11:33.402Z,8.60
2018-10-16T00:14:11.395Z,8.03
2018-10-16T00:16:41.158Z,7.73
2018-10-16T00:19:10.551Z,8.70
2018-10-16T00:21:40.382Z,8.13
2018-10-16T00:24:13.503Z,8.57
2018-10-16T00:26:42.793Z,7.93
2018-10-16T00:29:14.876Z,9.13
2018-10-16T00:31:44.429Z,8.07
2018-10-16T00:34:16.987Z,8.83
2018-10-16T00:36:48.993Z,7.33
2018-10-16T00:39:19.648Z,7.80
2018-10-16T00:41:54.111Z,8.10
2018-10-16T00:44:23.334Z,7.70
2018-10-16T00:46:52.563Z,7.13
2018-10-16T00:49:25.279Z,7.57
2018-10-16T00:51:54.573Z,9.03
2018-10-16T00:54:27.304Z,7.70
2018-10-16T00:56:56.923Z,8.87
2018-10-16T00:59:29.412Z,6.93
2018-10-16T01:01:58.666Z,7.20
2018-10-16T01:04:31.742Z,6.23
2018-10-16T01:07:01.693Z,7.37
2018-10-16T01:09:34.459Z,8.83
2018-10-16T01:12:04.055Z,9.13
2018-10-16T01:14:36.904Z,6.53
2018-10-16T01:17:06.698Z,7.60
2018-10-16T01:19:39.422Z,7.47
2018-10-16T01:22:08.944Z,7.10
2018-10-16T01:24:46.921Z,7.00
2018-10-16T01:27:17.606Z,6.60
2018-10-16T01:29:47.065Z,6.43
2018-10-16T01:32:16.572Z,6.00
2018-10-16T01:34:49.318Z,6.30
2018-10-16T01:37:18.549Z,5.93
2018-10-16T01:39:52.273Z,7.97
2018-10-16T01:42:21.455Z,5.60
2018-10-16T01:44:54.550Z,5.10
2018-10-16T01:47:24.087Z,5.33
2018-10-16T01:49:56.804Z,5.27
2018-10-16T01:52:26.132Z,5.50
2018-10-16T01:54:59.402Z,4.40
2018-10-16T01:57:28.907Z,6.00
2018-10-16T02:00:06.439Z,6.80
2018-10-16T02:02:36.000Z,5.70
2018-10-16T02:05:06.103Z,5.13
2018-10-16T02:07:35.675Z,4.60
2018-10-16T02:10:09.138Z,6.60
2018-10-16T02:12:38.372Z,6.13
2018-10-16T02:15:12.114Z,6.03
2018-10-16T02:17:41.583Z,7.77
2018-10-16T02:20:18.816Z,7.17
2018-10-16T02:22:48.923Z,5.50
2018-10-16T02:25:18.133Z,6.00
2018-10-16T02:27:47.682Z,6.00
2018-10-16T02:30:20.498Z,5.90
2018-10-16T02:32:50.379Z,6.00
2018-10-16T02:35:23.101Z,6.27
2018-10-16T02:37:53.793Z,7.77
2018-10-16T02:40:24.762Z,6.40
2018-10-16T02:42:56.083Z,7.60
2018-10-16T02:45:27.262Z,7.07
2018-10-16T02:47:56.945Z,6.30
2018-10-16T02:50:30.243Z,7.57
2018-10-16T02:52:59.927Z,7.57
2018-10-16T02:55:32.550Z,8.60
2018-10-16T02:58:02.236Z,6.60
2018-10-16T03:00:34.444Z,6.33
2018-10-16T03:03:03.651Z,6.60
2018-10-16T03:05:36.674Z,6.97
2018-10-16T03:08:05.999Z,8.30
2018-10-16T03:10:39.334Z,8.10
2018-10-16T03:13:08.952Z,6.93
2018-10-16T03:15:45.267Z,8.87
2018-10-16T03:18:14.443Z,8.27
2018-10-16T03:20:45.328Z,7.00
2018-10-16T03:23:14.577Z,7.67
2018-10-16T03:25:50.779Z,8.27
2018-10-16T03:28:20.308Z,7.10
2018-10-16T03:30:50.453Z,10.20
2018-10-16T03:35:41.798Z,7.37
2018-10-16T03:38:11.149Z,6.87
2018-10-16T03:40:40.346Z,6.30
2018-10-16T03:43:11.973Z,7.87
2018-10-16T03:45:41.164Z,5.50
2018-10-16T03:48:11.302Z,6.83
2018-10-16T03:50:41.809Z,7.33
2018-10-16T03:53:11.130Z,6.40
2018-10-16T03:55:40.375Z,6.20
2018-10-16T03:58:10.487Z,6.10
2018-10-16T04:00:39.726Z,6.60
2018-10-16T04:03:09.299Z,7.50
2018-10-16T04:05:39.180Z,6.70
2018-10-16T04:08:15.834Z,8.17
2018-10-16T04:10:45.046Z,6.00
2018-10-16T04:13:15.882Z,7.23
2018-10-16T04:15:45.107Z,6.23
2018-10-16T04:18:18.322Z,7.70
2018-10-16T04:20:47.804Z,7.30
2018-10-16T04:23:20.646Z,6.80
2018-10-16T04:25:49.880Z,6.50
2018-10-16T04:28:23.124Z,7.57
2018-10-16T04:30:52.601Z,6.63
2018-10-16T04:33:25.362Z,6.37
2018-10-16T04:35:54.595Z,7.53
2018-10-16T04:38:27.974Z,6.07
2018-10-16T04:40:57.179Z,7.53
2018-10-16T04:43:29.929Z,7.97
2018-10-16T04:45:59.800Z,7.37
2018-10-16T04:48:36.050Z,7.03
2018-10-16T04:51:05.688Z,7.20
2018-10-16T04:53:35.155Z,7.20
2018-10-16T04:56:04.668Z,6.70
2018-10-16T04:58:41.242Z,6.90
2018-10-16T05:01:10.681Z,7.03
2018-10-16T05:03:40.484Z,6.60
2018-10-16T05:06:10.005Z,7.00
2018-10-16T05:08:46.809Z,7.13
2018-10-16T05:11:16.758Z,6.30
2018-10-16T05:13:46.987Z,8.20
2018-10-16T05:16:16.220Z,7.30
2018-10-16T05:21:23.911Z,7.10
2018-10-16T05:23:53.488Z,8.03
2018-10-16T05:26:22.710Z,6.70
2018-10-16T05:28:55.042Z,6.77
2018-10-16T05:31:24.683Z,7.83
2018-10-16T05:33:57.930Z,6.70
2018-10-16T05:36:27.330Z,7.07
2018-10-16T05:39:00.060Z,10.23
2018-10-16T05:41:29.768Z,7.00
2018-10-16T05:44:03.930Z,9.47
2018-10-16T05:46:33.275Z,6.57
2018-10-16T05:49:06.222Z,7.37
2018-10-16T05:51:35.740Z,7.27
2018-10-16T05:54:12.310Z,7.63
2018-10-16T05:56:41.814Z,5.93
2018-10-16T05:59:14.698Z,6.03
2018-10-16T06:01:44.074Z,6.77
2018-10-16T06:04:16.920Z,6.73
2018-10-16T06:06:46.173Z,7.67
2018-10-16T06:09:22.792Z,6.73
2018-10-16T06:11:52.053Z,8.03
2018-10-16T06:14:21.413Z,9.23
2018-10-16T06:16:51.027Z,7.37
2018-10-16T06:19:24.310Z,6.80
2018-10-16T06:21:53.603Z,6.90
2018-10-16T06:24:26.716Z,8.30
2018-10-16T06:26:56.266Z,9.83
2018-10-16T06:29:29.806Z,8.43
2018-10-16T06:31:59.960Z,12.43
2018-10-16T06:34:30.662Z,7.50
2018-10-16T06:36:59.912Z,7.23
2018-10-16T06:39:32.787Z,12.00
2018-10-16T06:42:02.058Z,7.63
2018-10-16T06:44:35.436Z,7.70
2018-10-16T06:47:05.455Z,10.03
2018-10-16T06:49:38.672Z,8.17
2018-10-16T06:52:08.043Z,8.83
2018-10-16T06:54:41.094Z,8.63
2018-10-16T06:57:10.432Z,10.50
2018-10-16T06:59:43.446Z,10.80
2018-10-16T07:02:13.237Z,8.83
2018-10-16T07:04:49.805Z,16.17
2018-10-16T07:07:19.560Z,15.63
2018-10-16T07:09:49.225Z,13.55
2018-10-16T07:12:18.759Z,16.10
2018-10-16T07:14:52.268Z,12.70
2018-10-16T07:17:21.589Z,16.33
2018-10-16T07:19:58.229Z,14.20
2018-10-16T07:22:27.805Z,12.20
2018-10-16T07:24:57.435Z,11.93
2018-10-16T07:27:26.650Z,13.17
2018-10-16T07:30:00.923Z,11.30
2018-10-16T07:32:30.366Z,14.87
2018-10-16T07:35:08.750Z,16.00
2018-10-16T07:37:39.400Z,13.57
2018-10-16T07:40:10.182Z,13.23
2018-10-16T07:42:40.021Z,10.87
2018-10-16T07:45:10.969Z,9.13
2018-10-16T07:47:40.806Z,15.03
2018-10-16T07:50:17.891Z,10.23
2018-10-16T07:52:47.342Z,9.37
2018-10-16T07:55:17.503Z,8.57
2018-10-16T07:57:46.917Z,8.20
2018-10-16T08:00:20.046Z,12.33
2018-10-16T08:02:50.838Z,9.07
2018-10-16T08:05:21.545Z,8.50
2018-10-16T08:07:50.797Z,8.57
2018-10-16T08:10:23.707Z,10.73
2018-10-16T08:12:55.393Z,8.97
2018-10-16T08:15:26.334Z,10.57
2018-10-16T08:17:56.059Z,11.17
2018-10-16T08:20:32.630Z,12.20
2018-10-16T08:23:01.919Z,11.83
2018-10-16T08:25:32.641Z,9.53
2018-10-16T08:28:02.512Z,14.53
2018-10-16T08:30:33.992Z,14.37
2018-10-16T08:33:04.916Z,9.67
2018-10-16T08:35:35.938Z,10.63
2018-10-16T08:40:17.187Z,9.33
2018-10-16T08:42:57.482Z,11.40
2018-10-16T08:45:38.782Z,14.27
2018-10-16T08:48:18.884Z,10.97
2018-10-16T08:51:00.385Z,12.53
2018-10-16T08:53:30.667Z,8.47
2018-10-16T08:56:00.340Z,8.33
2018-10-16T08:58:29.631Z,8.97
2018-10-16T09:00:59.028Z,6.60
2018-10-16T09:03:28.815Z,10.77
2018-10-16T09:05:58.249Z,6.70
2018-10-16T09:08:27.575Z,12.13
2018-10-16T09:10:57.522Z,4.80
2018-10-16T09:13:27.864Z,5.50
2018-10-16T09:16:01.193Z,6.27
2018-10-16T09:21:09.937Z,5.87
2018-10-16T09:23:39.351Z,7.63
2018-10-16T09:26:09.143Z,10.70
2018-10-16T09:28:39.222Z,7.13
2018-10-16T09:31:09.103Z,10.43
2018-10-16T09:33:38.723Z,7.27
2018-10-16T09:36:15.991Z,7.10
2018-10-16T09:38:45.958Z,4.57
2018-10-16T09:41:15.731Z,5.07
2018-10-16T09:43:45.239Z,7.33
2018-10-16T09:46:17.948Z,4.93
2018-10-16T09:48:47.505Z,7.03
2018-10-16T09:51:20.510Z,8.10
2018-10-16T09:53:53.407Z,6.07
2018-10-16T09:56:23.235Z,6.67
2018-10-16T09:58:52.892Z,6.50
2018-10-16T10:01:31.332Z,4.87
2018-10-16T10:04:00.768Z,4.37
2018-10-16T10:06:30.589Z,6.43
2018-10-16T10:09:13.270Z,5.13
2018-10-16T10:11:42.849Z,8.87
2018-10-16T10:14:13.454Z,7.30
2018-10-16T10:16:43.114Z,7.00
2018-10-16T10:19:12.425Z,6.80
2018-10-16T10:21:42.208Z,6.77
2018-10-16T10:24:12.154Z,7.40
2018-10-16T10:26:41.928Z,8.07
2018-10-16T10:29:11.606Z,9.13
2018-10-16T10:31:40.951Z,7.53
2018-10-16T10:34:10.311Z,9.87
2018-10-16T10:36:43.019Z,8.10
2018-10-16T10:39:13.218Z,7.73
2018-10-16T10:41:49.852Z,6.23
2018-10-16T10:44:20.260Z,5.07
2018-10-16T10:46:49.562Z,7.37
2018-10-16T10:49:19.441Z,4.53
2018-10-16T10:51:51.229Z,6.43
2018-10-16T10:54:23.041Z,4.77
2018-10-16T10:56:54.792Z,12.80
2018-10-16T10:59:25.543Z,5.37
2018-10-16T11:01:58.903Z,5.27
2018-10-16T11:04:28.358Z,5.63
2018-10-16T11:07:00.564Z,3.87
2018-10-16T11:09:31.147Z,7.37
2018-10-16T11:12:03.624Z,4.33
2018-10-16T11:14:33.220Z,4.40
2018-10-16T11:17:07.685Z,4.07
2018-10-16T11:19:39.021Z,4.63
2018-10-16T11:22:08.405Z,5.23
2018-10-16T11:24:37.779Z,3.97
2018-10-16T11:27:16.396Z,4.07
2018-10-16T11:29:45.717Z,3.27
2018-10-16T11:32:15.357Z,2.80
2018-10-16T11:34:44.600Z,3.33
2018-10-16T11:37:16.774Z,3.67
2018-10-16T11:39:46.099Z,3.03
2018-10-16T11:42:18.940Z,2.83
2018-10-16T11:44:49.154Z,6.93
2018-10-16T11:47:22.694Z,3.33
2018-10-16T11:49:52.100Z,4.83
2018-10-16T11:52:23.803Z,4.00
2018-10-16T11:54:53.177Z,3.50
2018-10-16T11:57:25.940Z,3.63
2018-10-16T11:59:56.317Z,3.90
2018-10-16T12:02:28.235Z,3.77
2018-10-16T12:04:58.752Z,4.43
2018-10-16T12:07:31.696Z,5.53
2018-10-16T12:10:03.328Z,4.83
2018-10-16T12:12:33.827Z,3.50
2018-10-16T12:15:03.446Z,4.97
2018-10-16T12:17:41.533Z,4.27
2018-10-16T12:20:20.974Z,4.93
2018-10-16T12:22:50.463Z,3.50
2018-10-16T12:25:20.131Z,3.87
2018-10-16T12:27:49.410Z,3.53
2018-10-16T12:30:18.734Z,3.20
2018-10-16T12:32:49.114Z,4.10
2018-10-16T12:35:18.444Z,2.80
2018-10-16T12:37:48.169Z,3.53
2018-10-16T12:40:17.873Z,4.17
2018-10-16T12:42:50.164Z,2.90
2018-10-16T12:45:19.469Z,3.40
2018-10-16T12:47:52.812Z,3.53
2018-10-16T12:50:22.253Z,6.40
2018-10-16T12:52:59.355Z,3.83
2018-10-16T12:55:28.979Z,3.67
2018-10-16T12:57:58.585Z,5.70
2018-10-16T13:00:27.867Z,2.90
2018-10-16T13:03:02.187Z,2.97
2018-10-16T13:05:31.414Z,2.93
2018-10-16T13:08:10.558Z,3.10
2018-10-16T13:10:40.061Z,3.33
2018-10-16T13:13:09.635Z,3.17
2018-10-16T13:15:39.070Z,3.50
2018-10-16T13:18:12.065Z,3.37
2018-10-16T13:20:41.557Z,3.00
2018-10-16T13:25:42.669Z,7.83
2018-10-16T13:28:16.751Z,5.03
2018-10-16T13:30:46.046Z,4.37
2018-10-16T13:35:46.347Z,4.80
2018-10-16T13:38:20.661Z,3.03
2018-10-16T13:43:25.051Z,3.70
2018-10-16T13:45:54.809Z,3.67
2018-10-16T13:48:26.429Z,3.43
2018-10-16T13:50:56.413Z,3.77
2018-10-16T13:53:29.516Z,3.37
2018-10-16T13:55:58.804Z,3.73
2018-10-16T13:58:31.160Z,3.70
2018-10-16T14:01:00.774Z,4.40
2018-10-16T14:03:37.895Z,3.00
2018-10-16T14:06:07.457Z,4.53
2018-10-16T14:08:36.865Z,4.93
2018-10-16T14:11:06.233Z,3.33
2018-10-16T14:13:39.004Z,5.00
2018-10-16T14:16:09.262Z,5.47
2018-10-16T14:18:42.150Z,4.10
2018-10-16T14:21:12.251Z,5.20
2018-10-16T14:23:44.790Z,4.50
2018-10-16T14:26:14.151Z,4.70
2018-10-16T14:28:46.653Z,4.47
2018-10-16T14:31:16.155Z,4.13
2018-10-16T14:33:49.593Z,4.53
2018-10-16T14:36:20.200Z,3.50
2018-10-16T14:38:53.490Z,3.80
2018-10-16T14:41:23.191Z,3.90
2018-10-16T14:43:56.104Z,5.67
2018-10-16T14:46:25.484Z,5.13
2018-10-16T14:48:58.621Z,4.60
2018-10-16T14:51:28.297Z,4.03
2018-10-16T14:54:05.277Z,4.83
2018-10-16T14:56:35.440Z,4.17
2018-10-16T14:59:04.921Z,4.87
2018-10-16T15:01:34.265Z,3.47
2018-10-16T15:04:06.797Z,4.30
2018-10-16T15:06:37.277Z,4.00
2018-10-16T15:09:14.225Z,4.53
2018-10-16T15:11:44.272Z,4.23
2018-10-16T15:14:14.733Z,4.60
2018-10-16T15:16:44.392Z,6.77
2018-10-16T15:19:17.741Z,4.43
2018-10-16T15:21:47.108Z,4.70
2018-10-16T15:24:19.010Z,4.27
2018-10-16T15:26:48.387Z,4.07
2018-10-16T15:29:25.630Z,5.97
2018-10-16T15:31:56.684Z,4.80
2018-10-16T15:34:27.026Z,4.33
2018-10-16T15:36:56.450Z,6.27
2018-10-16T15:39:26.181Z,4.87
2018-10-16T15:41:55.883Z,4.50
2018-10-16T15:44:28.510Z,4.53
2018-10-16T15:46:58.475Z,4.93
2018-10-16T15:49:33.918Z,4.90
2018-10-16T15:52:03.591Z,5.43
2018-10-16T15:54:35.026Z,4.53
2018-10-16T15:57:04.491Z,4.67
2018-10-16T15:59:36.350Z,4.43
2018-10-16T16:02:06.312Z,5.80
2018-10-16T16:04:38.772Z,7.00
2018-10-16T16:07:08.181Z,6.83
2018-10-16T16:09:41.364Z,5.03
2018-10-16T16:12:10.891Z,5.90
2018-10-16T16:14:43.882Z,5.13
2018-10-16T16:17:13.238Z,5.27
2018-10-16T16:19:46.444Z,5.27
2018-10-16T16:22:16.688Z,4.67
2018-10-16T16:24:50.259Z,5.73
2018-10-16T16:27:19.607Z,5.40
2018-10-16T16:29:56.464Z,6.50
2018-10-16T16:32:26.731Z,7.80
2018-10-16T16:34:56.741Z,5.33
2018-10-16T16:37:27.074Z,5.37
2018-10-16T16:39:59.795Z,7.33
2018-10-16T16:42:30.602Z,5.60
2018-10-16T16:45:01.738Z,4.73
2018-10-16T16:47:31.353Z,5.20
2018-10-16T16:50:04.937Z,5.13
2018-10-16T16:52:34.569Z,5.00
2018-10-16T16:55:08.839Z,4.97
2018-10-16T16:57:38.162Z,5.10
2018-10-16T17:00:11.358Z,7.43
2018-10-16T17:02:41.370Z,5.33
2018-10-16T17:05:14.525Z,7.10
2018-10-16T17:07:44.416Z,6.43
2018-10-16T17:10:17.529Z,7.13
2018-10-16T17:12:46.980Z,7.23
2018-10-16T17:15:20.113Z,5.53
2018-10-16T17:17:49.814Z,6.00
2018-10-16T17:20:23.346Z,6.43
2018-10-16T17:22:52.666Z,6.17
2018-10-16T17:25:25.398Z,5.90
2018-10-16T17:27:54.806Z,6.77
2018-10-16T17:30:26.123Z,6.00
2018-10-16T17:32:55.531Z,9.57
2018-10-16T17:35:28.954Z,9.27
2018-10-16T17:37:58.440Z,8.03
2018-10-16T17:40:31.511Z,8.83
2018-10-16T17:43:01.183Z,6.77
2018-10-16T17:45:33.575Z,7.57
2018-10-16T17:48:03.256Z,8.67
2018-10-16T17:50:36.368Z,6.77
2018-10-16T17:53:05.791Z,5.83
2018-10-16T17:55:38.649Z,6.63
2018-10-16T17:58:08.834Z,8.53
2018-10-16T18:00:42.860Z,6.13
2018-10-16T18:03:13.493Z,5.77
2018-10-16T18:05:43.720Z,6.63
2018-10-16T18:08:13.134Z,7.57
2018-10-16T18:10:47.141Z,5.53
2018-10-16T18:13:16.780Z,5.90
2018-10-16T18:16:52.056Z,5.80
2018-10-16T18:19:21.398Z,8.10
2018-10-16T18:21:53.740Z,6.40
2018-10-16T18:24:23.961Z,5.00
2018-10-16T18:26:58.039Z,4.80
2018-10-16T18:29:28.112Z,7.17
2018-10-16T18:31:59.390Z,6.40
2018-10-16T18:34:29.175Z,5.17
2018-10-16T18:37:07.352Z,6.57
2018-10-16T18:39:37.174Z,6.10
2018-10-16T18:42:07.608Z,5.40
2018-10-16T18:44:37.306Z,5.00
2018-10-16T18:47:07.237Z,5.13
2018-10-16T18:49:37.068Z,7.00
2018-10-16T18:52:11.418Z,6.30
2018-10-16T18:54:40.739Z,5.40
2018-10-16T18:57:17.394Z,6.90
2018-10-16T18:59:47.188Z,5.57
2018-10-16T19:02:16.725Z,10.10
2018-10-16T19:04:46.249Z,7.17
2018-10-16T19:07:18.928Z,6.63
2018-10-16T19:09:49.322Z,6.60
2018-10-16T19:12:22.525Z,6.37
2018-10-16T19:14:52.478Z,9.03
2018-10-16T19:17:23.406Z,7.80
2018-10-16T19:19:52.933Z,7.10
2018-10-16T19:22:25.581Z,6.10
2018-10-16T19:24:55.057Z,6.43
2018-10-16T19:27:31.763Z,5.90
2018-10-16T19:30:01.431Z,6.20
2018-10-16T19:32:30.916Z,8.33
2018-10-16T19:35:00.386Z,5.53
2018-10-16T19:37:32.429Z,8.57
2018-10-16T19:40:01.899Z,6.17
2018-10-16T19:42:35.143Z,7.43
2018-10-16T19:45:05.648Z,6.77
2018-10-16T19:47:38.293Z,7.07
2018-10-16T19:50:08.583Z,6.17
2018-10-16T19:52:41.420Z,6.07
2018-10-16T19:55:11.737Z,5.67
2018-10-16T19:57:42.635Z,6.13
2018-10-16T20:00:12.844Z,7.77
2018-10-16T20:02:45.968Z,5.73
2018-10-16T20:05:15.373Z,9.97
2018-10-16T20:07:48.128Z,5.97
2018-10-16T20:10:18.433Z,5.90
2018-10-16T20:12:55.104Z,5.43
2018-10-16T20:15:24.973Z,7.87
2018-10-16T20:17:54.406Z,6.22
2018-10-16T20:20:23.833Z,5.97
2018-10-16T20:22:56.989Z,6.80
2018-10-16T20:25:26.968Z,5.27
2018-10-16T20:28:00.812Z,4.73
2018-10-16T20:30:33.594Z,7.13
2018-10-16T20:33:03.131Z,6.03
2018-10-16T20:35:32.676Z,5.67
2018-10-16T20:38:06.001Z,6.07
2018-10-16T20:40:35.625Z,9.70
2018-10-16T20:43:08.772Z,7.00
2018-10-16T20:45:38.973Z,5.80
2018-10-16T20:48:12.546Z,5.70
2018-10-16T20:50:42.001Z,5.87
2018-10-16T20:53:15.193Z,8.50
2018-10-16T20:55:44.839Z,6.77
2018-10-16T20:58:17.420Z,6.57
2018-10-16T21:00:47.428Z,6.07
2018-10-16T21:03:20.682Z,5.27
2018-10-16T21:05:50.204Z,6.73
2018-10-16T21:14:45.883Z,7.57
2018-10-16T21:17:15.594Z,4.40
2018-10-16T21:19:44.986Z,5.50
2018-10-16T21:22:15.609Z,5.40
2018-10-16T21:24:44.996Z,5.73
2018-10-16T21:27:14.365Z,6.37
2018-10-16T21:29:44.185Z,5.43
2018-10-16T21:32:13.629Z,8.63
2018-10-16T21:34:42.925Z,7.53
2018-10-16T21:37:12.643Z,7.07
2018-10-16T21:39:42.069Z,6.40
2018-10-16T21:42:11.486Z,4.67
2018-10-16T21:44:41.341Z,5.47
2018-10-16T21:47:10.764Z,5.00
2018-10-16T21:49:41.321Z,5.03
2018-10-16T21:52:13.039Z,5.93
2018-10-16T21:54:45.188Z,6.33
2018-10-16T21:57:14.625Z,4.87
2018-10-16T21:59:47.193Z,5.17
2018-10-16T22:02:21.517Z,8.30
2018-10-16T22:04:50.923Z,4.97
2018-10-16T22:07:20.575Z,4.87
2018-10-16T22:09:53.439Z,3.90
2018-10-16T22:12:22.791Z,4.30
2018-10-16T22:14:56.791Z,7.20
2018-10-16T22:17:26.149Z,4.20
2018-10-16T22:19:58.740Z,4.20
2018-10-16T22:22:28.088Z,4.13
2018-10-16T22:25:01.262Z,5.00
2018-10-16T22:27:30.940Z,4.23
2018-10-16T22:30:08.258Z,3.43
2018-10-16T22:32:37.768Z,3.67
2018-10-16T22:35:09.360Z,4.53
2018-10-16T22:37:38.848Z,3.40
2018-10-16T22:40:11.516Z,4.13
2018-10-16T22:42:40.899Z,7.30
2018-10-16T22:45:13.436Z,6.63
2018-10-16T22:47:42.734Z,5.30
2018-10-16T22:50:19.076Z,4.53
2018-10-16T22:52:48.846Z,4.80
2018-10-16T22:55:18.368Z,4.83
2018-10-16T22:57:47.668Z,4.07
2018-10-16T23:00:20.786Z,4.50
2018-10-16T23:02:50.084Z,4.97
2018-10-16T23:05:26.915Z,4.93
2018-10-16T23:07:56.606Z,4.83
2018-10-16T23:10:25.926Z,4.77
2018-10-16T23:13:00.522Z,5.50
2018-10-16T23:15:30.147Z,5.10
2018-10-16T23:17:59.982Z,4.40
2018-10-16T23:20:31.344Z,4.47
2018-10-16T23:23:01.017Z,4.90
2018-10-16T23:25:33.409Z,4.60
2018-10-16T23:28:02.909Z,3.73
2018-10-16T23:30:35.246Z,6.57
2018-10-16T23:33:04.521Z,4.67
2018-10-16T23:35:39.364Z,4.00
2018-10-16T23:38:08.937Z,6.40
2018-10-16T23:40:41.211Z,4.37
2018-10-16T23:43:10.592Z,4.63
2018-10-16T23:45:43.428Z,6.93
2018-10-16T23:48:13.026Z,4.37
2018-10-16T23:50:45.989Z,4.57
2018-10-16T23:53:15.229Z,5.47
2018-10-16T23:55:52.041Z,5.43
2018-10-16T23:58:21.289Z,5.20
